Time;durP1;ratioP1;P1;durP2;ratioP2;P2;SDS_P1;SDS_P2;PMS_P1;PMS_P2;Temp;Humidity;BMP_temperature;BMP_pressure;BME280_temperature;BME280_humidity;BME280_pressure;Samples;Min_cycle;Max_cycle;Signal;HPM_P1;HPM_P2
2022/02/10 00:05:50;;;;;;;18.08;10.57;;;;;;;5.14;99.10;101082.13;6157722;23;20381;-93
2022/02/10 00:13:24;;;;;;;19.53;10.23;;;;;;;4.94;99.16;101047.38;6157036;23;20098;-95
2022/02/10 00:14:22;;;;;;;16.58;10.40;;;;;;;4.93;99.79;101035.16;6159737;23;20504;-94
2022/02/10 00:19:51;;;;;;;15.07;9.45;;;;;;;5.11;99.39;101073.41;6158947;23;20072;-96
2022/02/10 00:36:29;;;;;;;17.35;10.02;;;;;;;4.79;99.83;101044.97;6158043;23;20014;-93
2022/02/10 00:39:11;;;;;;;20.02;10.73;;;;;;;4.89;99.39;101062.31;6158713;23;20057;-94
2022/02/10 00:41:41;;;;;;;18.58;10.55;;;;;;;4.81;99.29;101046.69;6159006;23;20025;-92
2022/02/10 00:44:08;;;;;;;17.67;11.13;;;;;;;4.91;99.57;101061.41;6159223;23;20044;-93
2022/02/10 00:46:36;;;;;;;18.35;11.15;;;;;;;4.91;99.61;101044.78;6159390;23;20022;-93
2022/02/10 00:49:07;;;;;;;21.13;11.43;;;;;;;4.89;99.44;101038.69;6133904;23;20044;-93
2022/02/10 00:51:43;;;;;;;17.58;11.48;;;;;;;4.92;99.08;101046.53;6160745;23;20028;-94
2022/02/10 00:54:11;;;;;;;22.23;11.73;;;;;;;4.87;99.00;101038.75;6162311;23;20018;-93
2022/02/10 00:56:40;;;;;;;16.67;11.02;;;;;;;4.84;99.03;101030.03;6160135;23;20045;-94
2022/02/10 00:59:13;;;;;;;18.98;11.05;;;;;;;4.76;98.51;101011.75;6159111;23;20028;-94
2022/02/10 01:11:01;;;;;;;17.30;10.35;;;;;;;5.11;97.89;101055.91;6158861;23;20076;-93
2022/02/10 01:14:00;;;;;;;22.05;11.98;;;;;;;4.82;97.81;101005.56;6134191;23;20029;-94
2022/02/10 01:30:25;;;;;;;20.90;11.23;;;;;;;4.74;97.78;100989.03;6156943;23;20040;-93
2022/02/10 01:32:55;;;;;;;16.83;11.48;;;;;;;4.77;97.66;101002.13;6158378;23;20027;-95
2022/02/10 01:35:26;;;;;;;21.60;11.65;;;;;;;4.72;97.53;100990.84;6158058;23;20032;-94
2022/02/10 01:37:55;;;;;;;15.73;8.63;;;;;;;4.92;97.41;101017.66;6155759;23;20022;-93
2022/02/10 01:40:33;;;;;;;21.83;11.50;;;;;;;4.85;96.97;101011.66;6157195;23;20077;-95
2022/02/10 02:05:38;;;;;;;19.50;11.65;;;;;;;4.51;98.37;100984.13;6159495;23;20037;-93
2022/02/10 02:08:09;;;;;;;17.58;12.07;;;;;;;4.55;97.96;100989.31;6162164;23;20041;-94
2022/02/10 02:10:42;;;;;;;17.63;11.43;;;;;;;4.54;98.36;100991.97;6164785;23;20033;-93
2022/02/10 02:13:09;;;;;;;17.45;12.20;;;;;;;4.33;98.28;100959.00;6163728;23;20042;-93
2022/02/10 02:15:38;;;;;;;17.95;12.60;;;;;;;4.41;98.71;100972.88;6175068;23;20036;-96
2022/02/10 02:18:06;;;;;;;18.60;12.13;;;;;;;4.57;98.81;100999.75;6178653;23;20026;-94
2022/02/10 02:20:33;;;;;;;19.63;12.88;;;;;;;4.59;98.90;100995.38;6166351;23;20097;-94
2022/02/10 02:23:06;;;;;;;16.98;12.43;;;;;;;4.32;99.02;100946.78;6133292;23;20028;-96
2022/02/10 02:25:37;;;;;;;19.42;12.65;;;;;;;4.52;98.72;100980.63;6157743;23;20100;-93
2022/02/10 02:28:10;;;;;;;23.33;12.60;;;;;;;4.58;99.01;100991.00;6158314;23;20053;-93
2022/02/10 02:31:03;;;;;;;22.63;12.75;;;;;;;4.52;98.57;100985.88;6158646;23;20033;-93
2022/02/10 02:39:49;;;;;;;19.33;12.88;;;;;;;4.74;98.37;100997.78;6097235;23;20051;-94
2022/02/10 03:07:12;;;;;;;19.23;11.60;;;;;;;4.48;98.53;100974.53;6173229;23;20031;-95
2022/02/10 03:09:53;;;;;;;20.02;12.73;;;;;;;4.31;98.23;100939.78;6177507;23;20026;-93
2022/02/10 03:12:20;;;;;;;18.25;12.55;;;;;;;4.37;98.06;100951.97;6157351;23;20002;-96
2022/02/10 03:14:51;;;;;;;19.70;12.88;;;;;;;4.34;98.02;100945.00;6181113;23;20028;-95
2022/02/10 03:20:25;;;;;;;17.42;12.30;;;;;;;4.30;98.69;100927.56;6163735;23;20048;-93
2022/02/10 04:11:54;;;;;;;23.15;14.93;;;;;;;3.69;98.98;100907.34;6156466;23;20029;-94
2022/02/10 04:14:32;;;;;;;19.77;13.00;;;;;;;3.58;99.10;100887.41;6157402;23;20017;-94
2022/02/10 04:20:17;;;;;;;21.50;13.63;;;;;;;3.73;99.64;100911.66;6154286;23;20028;-94
2022/02/10 04:22:57;;;;;;;24.20;13.85;;;;;;;3.48;99.66;100863.91;6155296;23;20231;-93
2022/02/10 04:28:18;;;;;;;23.65;13.70;;;;;;;3.68;100.00;100875.91;6153912;23;20024;-93
2022/02/10 04:42:52;;;;;;;21.90;13.68;;;;;;;3.48;98.77;100858.66;6155129;23;20377;-92
2022/02/10 04:57:58;;;;;;;22.17;14.18;;;;;;;3.26;100.00;100890.31;6151776;23;20025;-96
2022/02/10 05:33:26;;;;;;;22.40;14.73;;;;;;;3.10;100.00;100861.69;6156195;23;20025;-93
2022/02/10 05:36:00;;;;;;;23.08;14.88;;;;;;;2.96;100.00;100840.00;6131547;23;20021;-93
2022/02/10 05:38:32;;;;;;;23.38;15.13;;;;;;;3.00;100.00;100851.28;6156801;23;20028;-93
2022/02/10 05:43:45;;;;;;;22.15;14.70;;;;;;;3.05;100.00;100865.22;6158609;23;20018;-92
2022/02/10 05:57:02;;;;;;;22.42;14.70;;;;;;;2.86;100.00;100827.88;6163761;23;20017;-95
2022/02/10 06:00:07;;;;;;;23.10;16.13;;;;;;;2.91;100.00;100831.31;6167640;23;20017;-93
2022/02/10 07:05:32;;;;;;;18.83;12.43;;;;;;;4.22;92.32;100871.75;6154712;23;20018;-92
2022/02/10 07:16:25;;;;;;;19.33;11.95;;;;;;;4.09;91.52;100846.63;6150176;23;20018;-92
2022/02/10 08:00:07;;;;;;;18.15;12.15;;;;;;;4.50;89.20;100839.00;6148614;23;20048;-92
2022/02/10 08:56:16;;;;;;;23.55;11.43;;;;;;;4.89;87.29;100818.25;6155452;23;20105;-94
2022/02/10 08:59:26;;;;;;;;;;;;;;;5.32;87.08;100880.53;6152009;23;20018;-93
2022/02/10 09:04:47;;;;;;;15.77;10.10;;;;;;;5.00;86.84;100836.47;6153153;23;20072;-93
2022/02/10 09:49:19;;;;;;;;;;;;;;;5.75;86.84;100923.50;6036562;23;20472;-93
2022/02/10 09:56:55;;;;;;;18.00;10.13;;;;;;;5.81;86.63;100917.28;6037127;23;20027;-92
2022/02/10 10:02:14;;;;;;;17.10;10.95;;;;;;;5.89;86.66;100918.88;6037596;23;20027;-94
2022/02/10 10:04:59;;;;;;;17.65;10.88;;;;;;;5.87;86.92;100912.75;6062913;23;20347;-92
2022/02/10 10:24:54;;;;;;;17.73;11.05;;;;;;;6.10;87.02;100888.69;6033757;23;20046;-92
2022/02/10 10:57:10;;;;;;;23.25;13.00;;;;;;;6.71;87.87;100932.06;6124701;23;20037;-94
2022/02/10 11:00:06;;;;;;;20.48;12.13;;;;;;;6.43;87.78;100878.34;6123189;23;20033;-94
2022/02/10 11:39:13;;;;;;;18.30;10.25;;;;;;;6.94;93.65;100927.13;6161715;23;20085;-92
2022/02/10 12:34:39;;;;;;;12.98;8.88;;;;;;;7.79;87.48;100895.09;6150326;23;20027;-94
2022/02/10 14:12:01;;;;;;;9.55;6.15;;;;;;;8.67;82.59;100874.03;6153241;23;20021;-92
2022/02/10 14:14:41;;;;;;;10.60;5.97;;;;;;;8.84;81.63;100877.91;6154609;23;20032;-93
2022/02/10 14:17:30;;;;;;;7.07;5.95;;;;;;;8.50;81.34;100814.78;6155178;23;20455;-93
2022/02/10 14:20:21;;;;;;;8.50;6.15;;;;;;;8.66;81.76;100842.38;6152092;23;20032;-94
2022/02/10 14:23:06;;;;;;;7.00;5.10;;;;;;;8.69;81.04;100845.81;6154488;23;20314;-93
2022/02/10 14:25:43;;;;;;;7.72;5.50;;;;;;;8.92;79.29;100845.06;6130782;23;20537;-93
2022/02/10 14:28:21;;;;;;;8.90;5.80;;;;;;;8.99;79.82;100849.22;6152698;23;20052;-93
2022/02/10 14:30:52;;;;;;;7.10;5.78;;;;;;;9.21;78.62;100875.78;6150918;23;20029;-93
2022/02/10 14:33:25;;;;;;;7.50;5.68;;;;;;;9.20;79.19;100895.19;6153358;23;20072;-93
2022/02/10 14:36:08;;;;;;;8.52;6.70;;;;;;;9.03;79.50;100892.25;6130335;23;20022;-93
2022/02/10 15:18:11;;;;;;;9.82;6.90;;;;;;;8.09;80.55;100849.38;6152004;23;20022;-93
2022/02/10 15:47:00;;;;;;;;;;;;;;;8.06;84.34;100891.69;6154472;23;20018;-94
2022/02/10 16:17:47;;;;;;;12.25;8.50;;;;;;;7.36;88.74;100893.63;6157616;23;20041;-92
2022/02/10 16:20:19;;;;;;;13.70;9.35;;;;;;;7.31;89.29;100895.50;6163266;23;20026;-92
2022/02/10 16:22:59;;;;;;;12.45;8.82;;;;;;;7.26;89.03;100904.41;6168261;23;20045;-92
2022/02/10 16:26:13;;;;;;;16.08;10.38;;;;;;;7.16;90.29;100901.16;6146165;23;20009;-92
2022/02/10 16:28:41;;;;;;;14.63;9.50;;;;;;;7.13;91.13;100900.34;6156823;23;20027;-92
2022/02/10 16:31:11;;;;;;;12.40;9.93;;;;;;;6.99;91.39;100898.06;6131292;23;20033;-92
2022/02/10 16:33:41;;;;;;;14.93;10.18;;;;;;;6.84;92.32;100872.09;6162306;23;20022;-92
2022/02/10 16:36:16;;;;;;;16.02;11.63;;;;;;;6.56;95.28;100838.56;6166750;23;20028;-93
2022/02/10 16:38:44;;;;;;;20.50;12.23;;;;;;;6.73;95.37;100879.41;6161214;23;20026;-95
2022/02/10 16:41:15;;;;;;;19.42;12.20;;;;;;;6.80;94.92;100891.50;6152092;23;20034;-92
2022/02/10 16:44:00;;;;;;;18.20;12.18;;;;;;;6.55;98.75;100863.13;6150384;23;20338;-92
2022/02/10 16:46:28;;;;;;;19.38;12.27;;;;;;;6.64;96.17;100883.97;6126185;23;20104;-92
2022/02/10 16:49:03;;;;;;;17.50;11.60;;;;;;;6.48;95.32;100858.91;6149641;23;20025;-93
2022/02/10 16:51:37;;;;;;;18.58;11.88;;;;;;;6.41;95.59;100844.16;6155924;23;20021;-93
2022/02/10 16:54:16;;;;;;;17.65;11.90;;;;;;;6.40;98.03;100845.06;6156148;23;20029;-92
2022/02/10 16:57:05;;;;;;;17.73;11.98;;;;;;;6.60;96.37;100871.81;6163877;23;20248;-94
2022/02/10 17:00:02;;;;;;;;;;;;;;;;;;;;;
2022/02/10 17:03:05;;;;;;;19.17;12.30;;;;;;;6.45;95.08;100837.09;6163184;23;20037;-95
2022/02/10 17:19:14;;;;;;;18.30;11.98;;;;;;;7.09;87.47;100893.41;6135865;23;20030;-91
2022/02/10 17:25:10;;;;;;;19.48;11.82;;;;;;;6.96;86.97;100877.06;6133643;23;20022;-89
2022/02/10 17:27:26;;;;;;;19.10;11.35;;;;;;;7.15;86.55;100898.56;6127629;23;20034;-91
2022/02/10 17:33:09;;;;;;;18.80;12.27;;;;;;;7.10;86.68;100889.88;6123197;23;20178;-92
2022/02/10 17:44:07;;;;;;;23.10;13.98;;;;;;;6.67;90.36;100886.53;6130220;23;20006;-92
2022/02/10 17:53:04;;;;;;;23.02;14.60;;;;;;;6.57;93.13;100887.66;6126115;23;20042;-90
2022/02/10 17:55:34;;;;;;;25.17;14.93;;;;;;;6.50;92.94;100886.03;6133290;23;20345;-91
2022/02/10 17:58:01;;;;;;;24.98;14.98;;;;;;;6.43;93.61;100883.59;6131724;23;20050;-92
2022/02/10 18:00:33;;;;;;;24.25;16.13;;;;;;;6.26;95.54;100878.72;6133599;23;20514;-92
2022/02/10 18:03:01;;;;;;;27.17;16.13;;;;;;;6.11;97.89;100869.38;6134516;23;20093;-91
2022/02/10 18:08:35;;;;;;;31.65;18.60;;;;;;;6.30;99.03;100918.03;6148656;23;20022;-96
2022/02/10 18:16:31;;;;;;;32.85;19.98;;;;;;;6.19;99.82;100904.25;6145605;23;20030;-95
2022/02/10 18:19:17;;;;;;;31.17;18.63;;;;;;;6.08;99.77;100886.97;6078857;23;20011;-92
2022/02/10 18:22:29;;;;;;;28.10;17.73;;;;;;;6.30;100.00;100927.69;6066015;23;20042;-91
2022/02/10 18:24:59;;;;;;;36.30;19.63;;;;;;;5.96;100.00;100875.81;6076246;23;20101;-92
2022/02/10 18:27:36;;;;;;;37.60;20.67;;;;;;;6.14;100.00;100919.25;6094866;23;20019;-92
2022/02/10 19:04:01;;;;;;;35.03;20.77;;;;;;;6.11;100.00;100902.69;6246958;23;20020;-93
2022/02/10 19:09:47;;;;;;;34.15;20.23;;;;;;;5.83;100.00;100836.63;6253648;23;20016;-94
2022/02/10 19:12:31;;;;;;;39.15;21.33;;;;;;;6.10;100.00;100888.69;6246862;23;20020;-92
2022/02/10 19:15:11;;;;;;;43.25;24.13;;;;;;;5.76;100.00;100846.41;6249444;23;20020;-91
2022/02/10 19:17:43;;;;;;;45.00;24.85;;;;;;;6.08;100.00;100892.25;6248728;23;20019;-92
2022/02/10 19:20:15;;;;;;;41.65;24.42;;;;;;;5.89;100.00;100874.22;6248892;23;20076;-91
2022/02/10 19:22:43;;;;;;;44.85;24.40;;;;;;;5.94;100.00;100884.63;6247708;23;20020;-94
2022/02/10 19:25:12;;;;;;;41.15;23.65;;;;;;;5.96;100.00;100878.47;6249306;23;20039;-91
2022/02/10 19:27:43;;;;;;;40.28;22.75;;;;;;;5.79;100.00;100842.88;6250672;23;20067;-90
2022/02/10 19:30:14;;;;;;;38.00;23.08;;;;;;;5.77;100.00;100837.63;6252575;23;20023;-93
2022/02/10 19:33:14;;;;;;;35.35;20.27;;;;;;;5.86;100.00;100850.56;6245590;23;20020;-92
2022/02/10 19:35:48;;;;;;;39.53;21.10;;;;;;;5.99;100.00;100874.88;6230774;23;20020;-93
2022/02/10 19:38:22;;;;;;;36.40;21.10;;;;;;;6.02;100.00;100873.94;6246238;23;20024;-92
2022/02/10 19:41:03;;;;;;;31.60;20.48;;;;;;;6.06;100.00;100876.50;6222686;23;20475;-92
2022/02/10 19:43:52;;;;;;;34.47;19.50;;;;;;;6.07;100.00;100867.72;6248081;23;20028;-93
2022/02/10 19:46:22;;;;;;;37.13;20.90;;;;;;;6.04;100.00;100848.50;6220054;23;20092;-92
2022/02/10 19:48:55;;;;;;;35.50;21.00;;;;;;;5.95;100.00;100839.06;6220730;23;20016;-94
2022/02/10 19:51:22;;;;;;;;;;;;;;;6.36;100.00;100901.28;6248670;23;20013;-93
2022/02/10 19:54:15;;;;;;;37.40;19.98;;;;;;;6.18;100.00;100860.44;6222770;23;19935;-93
2022/02/10 19:57:24;;;;;;;34.05;19.77;;;;;;;6.09;100.00;100850.13;6240528;23;20024;-93
2022/02/10 19:59:59;;;;;;;31.52;19.10;;;;;;;6.02;100.00;100838.00;6244746;23;20016;-94
2022/02/10 20:02:32;;;;;;;36.47;20.80;;;;;;;6.02;100.00;100843.28;6247580;23;20027;-92
2022/02/10 20:05:01;;;;;;;31.10;19.67;;;;;;;6.15;100.00;100864.91;6246361;23;20012;-92
2022/02/10 20:07:37;;;;;;;32.85;19.77;;;;;;;6.12;100.00;100850.09;6247411;23;20019;-93
2022/02/10 20:10:09;;;;;;;31.80;19.80;;;;;;;5.95;100.00;100825.91;6221644;23;20016;-93
2022/02/10 20:12:40;;;;;;;26.38;15.98;;;;;;;6.23;98.95;100853.34;6252381;23;20719;-93
2022/02/10 20:15:10;;;;;;;25.13;16.08;;;;;;;6.16;98.13;100835.09;6250237;23;20027;-92
2022/02/10 20:18:01;;;;;;;24.48;15.20;;;;;;;6.27;96.98;100843.63;6247742;23;20055;-92
2022/02/10 20:20:52;;;;;;;22.58;15.02;;;;;;;6.19;96.20;100828.00;6214528;23;20024;-93
2022/02/10 20:23:30;;;;;;;23.35;14.07;;;;;;;6.30;95.61;100854.03;6255626;23;20161;-94
2022/02/10 20:26:09;;;;;;;21.83;14.57;;;;;;;6.22;95.66;100856.88;6227165;22;20067;-92
2022/02/10 20:28:51;;;;;;;24.67;15.20;;;;;;;6.15;95.49;100850.00;6231937;23;20020;-93
2022/02/10 20:31:19;;;;;;;21.17;13.95;;;;;;;6.41;95.42;100881.00;6259403;23;20020;-94
2022/02/10 20:33:48;;;;;;;22.58;14.70;;;;;;;6.05;94.75;100818.69;6249495;23;20024;-92
2022/02/10 20:36:19;;;;;;;22.42;14.15;;;;;;;6.41;94.49;100882.75;6248292;23;20020;-92
2022/02/10 20:38:50;;;;;;;21.35;13.68;;;;;;;6.26;94.85;100857.66;6220518;23;20040;-93
2022/02/10 20:41:19;;;;;;;22.35;13.98;;;;;;;6.03;94.96;100818.72;6225761;23;20012;-93
2022/02/10 20:44:05;;;;;;;21.13;14.55;;;;;;;6.00;95.00;100813.50;6250529;23;20024;-92
2022/02/10 20:46:58;;;;;;;18.75;13.20;;;;;;;6.23;94.16;100842.81;6244313;23;20024;-91
2022/02/10 20:49:27;;;;;;;20.20;13.82;;;;;;;6.21;94.49;100846.38;6248003;23;20020;-91
2022/02/10 20:51:58;;;;;;;22.08;14.50;;;;;;;6.20;94.29;100850.75;6247423;23;20399;-93
2022/02/10 20:54:29;;;;;;;23.25;14.05;;;;;;;6.43;93.27;100870.44;6248029;23;20020;-90
2022/02/10 20:57:02;;;;;;;18.63;14.07;;;;;;;6.24;93.81;100834.03;6244593;23;20043;-92
2022/02/10 20:59:37;;;;;;;22.63;14.98;;;;;;;6.29;93.95;100857.59;6245002;23;20345;-91
2022/02/10 21:02:09;;;;;;;22.60;14.73;;;;;;;6.37;93.56;100865.31;6242956;23;20032;-92
2022/02/10 21:04:47;;;;;;;20.90;14.90;;;;;;;6.07;94.18;100830.03;6244800;23;20027;-93
2022/02/10 21:07:20;;;;;;;22.90;15.20;;;;;;;6.06;94.75;100825.66;6241273;23;20020;-93
2022/02/10 21:10:01;;;;;;;24.27;15.38;;;;;;;5.95;94.51;100800.50;6219793;23;20016;-94
2022/02/10 21:12:37;;;;;;;23.27;15.45;;;;;;;6.06;94.74;100829.16;6221185;23;20024;-95
2022/02/10 21:15:12;;;;;;;24.75;16.02;;;;;;;6.02;95.49;100827.50;6247505;23;20020;-94
2022/02/10 21:17:50;;;;;;;23.95;16.48;;;;;;;5.82;95.63;100796.38;6246449;23;20084;-93
2022/02/10 21:20:34;;;;;;;28.83;17.08;;;;;;;5.71;96.73;100797.47;6221067;23;20016;-93
2022/02/10 21:23:16;;;;;;;29.67;17.75;;;;;;;5.87;96.81;100833.91;6249140;23;20262;-93
2022/02/10 21:25:50;;;;;;;33.92;19.42;;;;;;;5.75;99.26;100828.91;6249057;23;20020;-93
2022/02/10 21:28:26;;;;;;;29.30;19.00;;;;;;;5.74;98.67;100826.31;6220257;23;20050;-93
2022/02/10 21:30:59;;;;;;;30.58;19.10;;;;;;;5.70;100.00;100830.75;6246721;23;20035;-92
2022/02/10 21:39:26;;;;;;;33.60;19.50;;;;;;;5.74;100.00;100844.72;6244427;23;20020;-93
2022/02/10 21:55:54;;;;;;;36.15;21.08;;;;;;;5.55;100.00;100823.19;6246184;23;20032;-94
2022/02/10 22:12:13;;;;;;;39.40;23.48;;;;;;;5.31;100.00;100808.78;6251178;23;20091;-94
2022/02/10 22:20:15;;;;;;;40.40;22.73;;;;;;;5.25;100.00;100795.75;6248929;23;20023;-93
2022/02/10 22:23:16;;;;;;;43.17;24.05;;;;;;;5.39;100.00;100819.13;6228672;23;20020;-91
2022/02/10 22:25:48;;;;;;;37.47;23.13;;;;;;;5.29;100.00;100810.56;6247728;23;20012;-94
2022/02/10 22:28:31;;;;;;;42.55;23.73;;;;;;;5.45;100.00;100829.53;6246324;23;20027;-95
2022/02/10 22:31:16;;;;;;;43.65;24.55;;;;;;;5.13;100.00;100777.59;6226100;23;20016;-91
2022/02/10 22:36:56;;;;;;;;;;;;;;;;;;;;;
2022/02/10 22:39:25;;;;;;;48.53;24.48;;;;;;;5.21;100.00;100796.69;6199665;23;20108;-93
2022/02/10 22:41:57;;;;;;;41.38;23.83;;;;;;;5.29;100.00;100810.56;6248257;23;20016;-91
2022/02/10 22:44:40;;;;;;;44.15;24.42;;;;;;;5.34;100.00;100818.38;6246144;23;20023;-92
2022/02/10 22:47:08;;;;;;;46.05;25.63;;;;;;;5.30;100.00;100812.28;6245189;23;20013;-91
2022/02/10 22:49:35;;;;;;;44.55;25.63;;;;;;;5.20;100.00;100808.09;6241419;23;20078;-93
2022/02/10 22:52:04;;;;;;;42.47;24.42;;;;;;;5.31;100.00;100821.91;6243295;23;20450;-90
2022/02/10 22:54:31;;;;;;;49.35;25.90;;;;;;;5.33;100.00;100820.13;6239405;23;20012;-90
2022/02/10 22:56:58;;;;;;;45.35;25.73;;;;;;;5.17;100.00;100795.91;6243254;23;20379;-91
2022/02/10 22:59:27;;;;;;;42.67;24.50;;;;;;;5.30;100.00;100812.28;6245337;23;20016;-90
2022/02/10 23:01:57;;;;;;;50.38;26.23;;;;;;;4.98;100.00;100768.25;6246506;23;20019;-89
2022/02/10 23:04:30;;;;;;;50.00;26.92;;;;;;;5.22;100.00;100796.66;6246853;23;20013;-90
2022/02/10 23:07:06;;;;;;;45.67;25.65;;;;;;;5.20;100.00;100797.59;6252364;23;20042;-91
2022/02/10 23:09:40;;;;;;;45.83;25.55;;;;;;;5.21;100.00;100805.44;6219469;23;20028;-90
2022/02/10 23:12:10;;;;;;;45.35;25.70;;;;;;;5.38;100.00;100820.88;6241608;23;20012;-91
2022/02/10 23:14:37;;;;;;;46.95;26.45;;;;;;;5.20;100.00;100792.34;6245944;23;20063;-91
2022/02/10 23:17:21;;;;;;;48.45;26.60;;;;;;;5.23;100.00;100802.78;6223804;23;20082;-93
2022/02/10 23:19:50;;;;;;;48.63;25.00;;;;;;;5.18;100.00;100795.03;6222705;23;20020;-93
2022/02/10 23:22:18;;;;;;;50.03;26.52;;;;;;;5.22;100.00;100796.66;6248551;23;20024;-93
2022/02/10 23:24:50;;;;;;;48.13;27.00;;;;;;;5.18;100.00;100783.66;6248579;23;20095;-92
2022/02/10 23:27:18;;;;;;;45.83;25.33;;;;;;;5.38;100.00;100820.00;6248546;23;20019;-92
2022/02/10 23:29:45;;;;;;;47.60;26.10;;;;;;;5.11;100.00;100769.75;6247080;23;20016;-93
2022/02/10 23:32:13;;;;;;;49.42;26.40;;;;;;;5.20;100.00;100793.19;6248462;23;20040;-95
2022/02/10 23:34:43;;;;;;;45.25;26.30;;;;;;;5.42;100.00;100819.94;6243719;23;20020;-91
2022/02/10 23:37:10;;;;;;;42.25;24.70;;;;;;;5.21;100.00;100796.69;6244464;23;20020;-92
2022/02/10 23:39:45;;;;;;;47.15;25.85;;;;;;;5.27;100.00;100805.34;6244366;23;20012;-92
2022/02/10 23:42:28;;;;;;;52.42;25.88;;;;;;;5.10;100.00;100773.28;6218328;23;20027;-93
2022/02/10 23:44:59;;;;;;;48.92;26.85;;;;;;;5.34;100.00;100815.72;6216161;22;20028;-92
2022/02/10 23:47:25;;;;;;;;;;;;;;;5.36;100.00;100817.41;6244480;23;20023;-93
2022/02/10 23:50:11;;;;;;;27.63;17.05;;;;;;;5.23;100.00;100793.16;6244066;23;20377;-92
2022/02/10 23:52:38;;;;;;;34.22;17.45;;;;;;;5.15;100.00;100799.44;6245252;23;20023;-92
2022/02/10 23:55:13;;;;;;;29.20;17.95;;;;;;;5.16;100.00;100804.69;6246641;23;20109;-93
2022/02/10 23:57:56;;;;;;;28.58;17.20;;;;;;;5.00;100.00;100795.34;6250513;23;20214;-94
